Gsp King — ZDGY7 — position and weather

sailwx.info

Track history (hours):
 
Tides and Currents Weather Stations Pressure Air Temp Water Temp Dewpoint Dewpoint Depression Visibility Wind Speed Wind Dir Waves Ship Positions

Gsp King

Last reported at 2018-Jun-23 00:29 UTC. Time now 2018-Jun-23 00:42 UTC.
Position N 44°10' E 028°39'.

Length 70 m; draft 5.9 m.

Type: Tug. MMSI: 236290000.

Date/timePositionNaut miles runAvg speedWind from/ knotsBaromVisibWave heightAir tempDewpointWater temp
2018-Jun-23 00:29N 44°10' E 028°39'0 0.0
2018-Jun-22 23:59N 44°10' E 028°39'0 0.0
2018-Jun-22 23:29N 44°10' E 028°39'0 0.0
2018-Jun-22 22:59N 44°10' E 028°39'0 0.0
2018-Jun-22 22:29N 44°10' E 028°39'0 0.0
2018-Jun-22 21:59N 44°10' E 028°39'0 0.0
2018-Jun-22 21:29N 44°10' E 028°39'0 0.0
2018-Jun-22 20:59N 44°10' E 028°39'0 0.0
2018-Jun-22 20:29N 44°10' E 028°39'0 0.0
2018-Jun-22 19:59N 44°10' E 028°39'0 0.0
2018-Jun-22 19:29N 44°10' E 028°39'0 0.0
2018-Jun-22 18:59N 44°10' E 028°39'0 0.0
2018-Jun-22 18:29N 44°10' E 028°39'0 0.0
2018-Jun-22 17:56N 44°10' E 028°39'0 0.0
2018-Jun-22 17:29N 44°10' E 028°39'0 0.0
2018-Jun-22 16:59N 44°10' E 028°39'0 0.0
2018-Jun-22 16:29N 44°10' E 028°39'0 0.0
2018-Jun-22 15:56N 44°10' E 028°39'0 0.0
2018-Jun-22 15:29N 44°10' E 028°39'0 0.0
2018-Jun-22 14:59N 44°10' E 028°39'0 0.0
2018-Jun-22 14:29N 44°10' E 028°39'0 0.0
2018-Jun-22 13:59N 44°10' E 028°39'0 0.0
2018-Jun-22 13:29N 44°10' E 028°39'0 0.0
2018-Jun-22 12:59N 44°10' E 028°39'0 0.0
2018-Jun-22 12:29N 44°10' E 028°39'0 0.0
2018-Jun-22 11:59N 44°10' E 028°39'0 0.0
2018-Jun-22 11:29N 44°10' E 028°39'0 0.0
2018-Jun-22 10:50N 44°10' E 028°39'0 0.0
2018-Jun-22 10:26N 44°10' E 028°39'0 0.0
2018-Jun-22 09:59N 44°10' E 028°39'0 0.0
2018-Jun-22 09:29N 44°10' E 028°39'0 0.0
2018-Jun-22 08:59N 44°10' E 028°39'0 0.0
2018-Jun-22 08:26N 44°10' E 028°39'0 0.0
2018-Jun-22 07:59N 44°10' E 028°39'0 0.0
2018-Jun-22 07:29N 44°10' E 028°39'0 0.0
2018-Jun-22 06:59N 44°10' E 028°39'0 0.0
2018-Jun-22 06:29N 44°10' E 028°39'0 0.0
2018-Jun-22 05:59N 44°10' E 028°39'0 0.0
2018-Jun-22 05:29N 44°10' E 028°39'0 0.1
2018-Jun-22 05:00N 44°10' E 028°39'1 3.0
2018-Jun-22 04:30N 44°09' E 028°40'4 7.8
2018-Jun-22 04:00N 44°05' E 028°43'4 7.3
2018-Jun-22 03:30N 44°07' E 028°48'4 8.6
2018-Jun-22 03:00N 44°10' E 028°52'4 8.7
2018-Jun-22 02:30N 44°13' E 028°56'4 8.7
2018-Jun-22 02:00N 44°16' E 029°00'4 8.7
2018-Jun-22 01:30N 44°19' E 029°05'4 8.7
2018-Jun-22 01:00N 44°21' E 029°10'4 8.6
2018-Jun-22 00:30N 44°24' E 029°15'4 8.6
2018-Jun-22 00:00N 44°27' E 029°19'4 8.7
2018-Jun-21 23:30N 44°30' E 029°24'4 7.6
2018-Jun-21 23:00N 44°32' E 029°28'0 0.0
2018-Jun-21 22:30N 44°32' E 029°28'0 0.0
2018-Jun-21 22:00N 44°32' E 029°28'0 0.0
2018-Jun-21 21:28N 44°32' E 029°28'0 0.0
2018-Jun-21 20:36N 44°32' E 029°28'0 0.0
2018-Jun-21 20:19N 44°32' E 029°28'0 0.0
2018-Jun-21 19:59N 44°32' E 029°28'0 0.0
2018-Jun-21 19:30N 44°32' E 029°28'0 0.0
2018-Jun-21 19:00N 44°32' E 029°28'0 0.0
2018-Jun-21 18:30N 44°32' E 029°28'0 0.0
2018-Jun-21 18:00N 44°32' E 029°28'0 0.0
2018-Jun-21 17:30N 44°32' E 029°28'0 0.0
2018-Jun-21 17:00N 44°32' E 029°28'0 0.0
2018-Jun-21 16:30N 44°32' E 029°28'0 0.0
2018-Jun-21 16:00N 44°32' E 029°28'0 0.0
2018-Jun-21 15:30N 44°32' E 029°28'0 0.0
2018-Jun-21 15:00N 44°32' E 029°28'0 0.0
2018-Jun-21 14:30N 44°32' E 029°28'0 0.0
2018-Jun-21 14:00N 44°32' E 029°28'0 0.0
2018-Jun-21 13:30N 44°32' E 029°28'0 0.0
2018-Jun-21 12:53N 44°32' E 029°28'0 0.0
2018-Jun-21 12:30N 44°32' E 029°28'0 0.0
2018-Jun-21 12:00N 44°32' E 029°28'1 2.7
2018-Jun-21 11:30N 44°33' E 029°29'0 0.1
2018-Jun-21 10:55N 44°33' E 029°29'0 0.0
2018-Jun-21 10:28N 44°33' E 029°29'0 0.0
2018-Jun-21 09:58N 44°33' E 029°29'0 0.0
2018-Jun-21 09:22N 44°33' E 029°29'0 0.0
2018-Jun-21 08:43N 44°33' E 029°29'0 0.0
2018-Jun-21 08:22N 44°33' E 029°29'0 0.0
2018-Jun-21 06:58N 44°33' E 029°29'0 0.0
2018-Jun-21 05:46N 44°33' E 029°29'0 0.0
2018-Jun-21 04:16N 44°33' E 029°29'0 0.0
2018-Jun-21 03:46N 44°33' E 029°29'0 0.0
2018-Jun-21 00:46N 44°33' E 029°29'0 0.0
2018-Jun-21 00:28N 44°33' E 029°29'0 0.0
2018-Jun-20 23:52N 44°33' E 029°29'0 0.0
2018-Jun-20 23:16N 44°33' E 029°29'0 0.0
2018-Jun-20 22:43N 44°33' E 029°29'0 0.0
2018-Jun-20 22:28N 44°33' E 029°29'0 0.0
2018-Jun-20 21:52N 44°33' E 029°29'0 0.0
2018-Jun-20 21:25N 44°33' E 029°29'0 0.0
2018-Jun-20 20:58N 44°33' E 029°29'0 0.0
2018-Jun-20 20:07N 44°33' E 029°29'0 0.0
2018-Jun-20 19:58N 44°33' E 029°29'0 0.0
2018-Jun-20 19:28N 44°33' E 029°29'0 0.0
2018-Jun-20 18:55N 44°33' E 029°29'0 0.0
2018-Jun-20 18:25N 44°33' E 029°29'0 0.0
2018-Jun-20 17:58N 44°33' E 029°29'0 0.0
2018-Jun-20 17:31N 44°33' E 029°29'1 2.8
2018-Jun-20 17:01N 44°32' E 029°28'0 0.0
2018-Jun-20 16:31N 44°32' E 029°28'0 0.0
2018-Jun-20 16:00N 44°32' E 029°28'0 0.0
2018-Jun-20 15:30N 44°32' E 029°28'0 0.0
2018-Jun-20 15:00N 44°32' E 029°28'0 0.0
2018-Jun-20 14:30N 44°32' E 029°28'0 0.0
2018-Jun-20 14:00N 44°32' E 029°28'0 0.0
2018-Jun-20 13:30N 44°32' E 029°28'0 0.0
2018-Jun-20 12:56N 44°32' E 029°28'0 0.0
2018-Jun-20 12:28N 44°32' E 029°28'0 0.0
2018-Jun-20 11:52N 44°32' E 029°28'0 0.0
2018-Jun-20 11:29N 44°32' E 029°28'0 0.0
2018-Jun-20 10:56N 44°32' E 029°28'0 0.0
2018-Jun-20 06:37N 44°32' E 029°28'0 0.0
2018-Jun-20 06:29N 44°32' E 029°28'0 0.0
2018-Jun-20 06:00N 44°32' E 029°28'0 0.0
2018-Jun-20 05:28N 44°32' E 029°28'0 0.0
2018-Jun-20 05:00N 44°32' E 029°28'0 0.1
2018-Jun-20 04:30N 44°32' E 029°28'1 3.0
2018-Jun-20 04:00N 44°33' E 029°29'0 0.1
2018-Jun-20 03:27N 44°33' E 029°29'0 0.0
2018-Jun-20 03:00N 44°33' E 029°29'0 0.0
2018-Jun-20 02:30N 44°33' E 029°29'0 0.0
2018-Jun-20 02:00N 44°33' E 029°29'0 0.0
2018-Jun-20 01:30N 44°33' E 029°29'0 0.0
2018-Jun-20 01:00N 44°33' E 029°29'0 0.0
2018-Jun-20 00:30N 44°33' E 029°29'0 0.0
2018-Jun-20 00:00N 44°33' E 029°29'0 0.0
2018-Jun-19 23:30N 44°33' E 029°29'0 0.0
2018-Jun-19 23:00N 44°33' E 029°29'0 0.0
2018-Jun-19 22:27N 44°33' E 029°29'0 0.0
2018-Jun-19 21:57N 44°33' E 029°29'0 0.0
2018-Jun-19 21:27N 44°33' E 029°29'0 0.0
2018-Jun-19 21:00N 44°33' E 029°29'0 0.0
2018-Jun-19 20:30N 44°33' E 029°29'0 0.0
2018-Jun-19 19:57N 44°33' E 029°29'1 2.1
2018-Jun-19 19:30N 44°32' E 029°29'1 1.1
2018-Jun-19 19:01N 44°32' E 029°28'0 0.0
2018-Jun-19 18:30N 44°32' E 029°28'0 0.0
2018-Jun-19 18:00N 44°32' E 029°28'1 2.9
2018-Jun-19 17:31N 44°33' E 029°29'0 0.3
2018-Jun-19 16:58N 44°33' E 029°29'0 0.0
2018-Jun-19 16:28N 44°33' E 029°29'0 0.0
2018-Jun-19 15:58N 44°33' E 029°29'0 0.0
2018-Jun-19 15:28N 44°33' E 029°29'0 0.0
2018-Jun-19 14:58N 44°33' E 029°29'0 0.0
2018-Jun-19 14:25N 44°33' E 029°29'0 0.0
2018-Jun-19 13:58N 44°33' E 029°29'0 0.0
2018-Jun-19 13:28N 44°33' E 029°29'0 0.0
2018-Jun-19 13:00N 44°33' E 029°29'0 0.0
2018-Jun-19 12:30N 44°33' E 029°29'0 0.0
2018-Jun-19 12:00N 44°33' E 029°29'0 0.0
2018-Jun-19 11:27N 44°33' E 029°29'0 0.0
2018-Jun-19 10:54N 44°33' E 029°29'0 0.0
2018-Jun-19 10:27N 44°33' E 029°29'0 0.0
2018-Jun-19 10:00N 44°33' E 029°29'0 0.0
2018-Jun-19 09:30N 44°33' E 029°29'0 0.0
2018-Jun-19 09:00N 44°33' E 029°29'0 0.0
2018-Jun-19 08:21N 44°33' E 029°29'0 0.0
2018-Jun-19 08:00N 44°33' E 029°29'0 0.0
2018-Jun-19 07:30N 44°33' E 029°29'0 0.0
2018-Jun-19 06:59N 44°33' E 029°29'0 0.0
2018-Jun-19 06:30N 44°33' E 029°29'0 0.0
2018-Jun-19 05:00N 44°33' E 029°29'0 0.0
2018-Jun-19 04:30N 44°33' E 029°29'0 0.0
2018-Jun-19 04:00N 44°33' E 029°29'0 0.0
2018-Jun-19 03:30N 44°33' E 029°29'0 0.0
2018-Jun-19 03:00N 44°33' E 029°29'0 0.0
2018-Jun-19 02:27N 44°33' E 029°29'0 0.0
2018-Jun-19 02:00N 44°33' E 029°29'0 0.0
2018-Jun-19 01:30N 44°33' E 029°29'0 0.0
2018-Jun-19 01:00N 44°33' E 029°29'0 0.0
2018-Jun-19 00:27N 44°33' E 029°29'0 0.0
2018-Jun-18 23:57N 44°33' E 029°29'1 3.3
2018-Jun-18 23:30N 44°32' E 029°28'0 0.2
2018-Jun-18 23:00N 44°32' E 029°28'0 0.0
2018-Jun-18 22:30N 44°32' E 029°28'0 0.0
2018-Jun-18 22:00N 44°32' E 029°28'0 0.0
2018-Jun-18 21:30N 44°32' E 029°28'0 0.0
2018-Jun-18 21:00N 44°32' E 029°28'0 0.0
2018-Jun-18 20:30N 44°32' E 029°28'0 0.0
2018-Jun-18 20:00N 44°32' E 029°28'0 0.0
2018-Jun-18 19:30N 44°32' E 029°28'0 0.0
2018-Jun-18 19:00N 44°32' E 029°28'0 0.0
2018-Jun-18 18:30N 44°32' E 029°28'0 0.0
2018-Jun-18 18:00N 44°32' E 029°28'0 0.0
2018-Jun-18 17:30N 44°32' E 029°28'0 0.0
2018-Jun-18 17:00N 44°32' E 029°28'0 0.0
2018-Jun-18 16:22N 44°32' E 029°28'0 0.0
2018-Jun-18 16:00N 44°32' E 029°28'0 0.2
2018-Jun-18 15:30N 44°32' E 029°28'1 2.3
2018-Jun-18 14:55N 44°31' E 029°27'5 8.7
2018-Jun-18 14:23N 44°28' E 029°22'3 8.6
2018-Jun-18 14:00N 44°26' E 029°18'4 8.5
2018-Jun-18 13:30N 44°23' E 029°14'4 8.5
2018-Jun-18 13:00N 44°21' E 029°09'4 8.5
2018-Jun-18 12:30N 44°18' E 029°04'4 8.6
2018-Jun-18 12:00N 44°15' E 028°60'4 8.5
2018-Jun-18 11:30N 44°12' E 028°55'4 8.4
2018-Jun-18 11:00N 44°10' E 028°51'4 8.4
2018-Jun-18 10:30N 44°07' E 028°47'3 6.6
2018-Jun-18 10:00N 44°07' E 028°42'4 7.6
2018-Jun-18 09:30N 44°10' E 028°39'0 0.2
2018-Jun-18 09:00N 44°10' E 028°39'0 0.0
2018-Jun-18 08:24N 44°10' E 028°39'0 0.0
2018-Jun-18 07:54N 44°10' E 028°39'0 0.0
2018-Jun-18 07:30N 44°10' E 028°39'0 0.0
2018-Jun-18 07:00N 44°10' E 028°39'0 0.0
2018-Jun-18 06:30N 44°10' E 028°39'0 0.0
2018-Jun-18 06:00N 44°10' E 028°39'0 0.0
2018-Jun-18 05:30N 44°10' E 028°39'0 0.0
2018-Jun-18 05:00N 44°10' E 028°39'0 0.0
2018-Jun-18 04:30N 44°10' E 028°39'0 0.0
2018-Jun-18 04:00N 44°10' E 028°39'0 0.0
2018-Jun-18 03:30N 44°10' E 028°39'0 0.0
2018-Jun-18 03:00N 44°10' E 028°39'0 0.0
2018-Jun-18 02:30N 44°10' E 028°39'0 0.0
2018-Jun-18 02:00N 44°10' E 028°39'0 0.0
2018-Jun-18 01:30N 44°10' E 028°39'0 0.0
2018-Jun-18 00:57N 44°10' E 028°39'0 0.0
2018-Jun-18 00:30N 44°10' E 028°39'0 0.0
2018-Jun-18 00:00N 44°10' E 028°39'0 0.0
2018-Jun-17 23:30N 44°10' E 028°39'0 0.0
2018-Jun-17 23:00N 44°10' E 028°39'0 0.0
2018-Jun-17 22:30N 44°10' E 028°39'0 0.0
2018-Jun-17 22:00N 44°10' E 028°39'0 0.0
2018-Jun-17 21:30N 44°10' E 028°39'0 0.0
2018-Jun-17 21:00N 44°10' E 028°39'0 0.0
2018-Jun-17 20:30N 44°10' E 028°39'0 0.0
2018-Jun-17 20:00N 44°10' E 028°39'0 0.0
2018-Jun-17 19:30N 44°10' E 028°39'0 0.0
2018-Jun-17 19:00N 44°10' E 028°39'0 0.0
2018-Jun-17 18:30N 44°10' E 028°39'0 0.0
2018-Jun-17 18:00N 44°10' E 028°39'0 0.0
2018-Jun-17 17:30N 44°10' E 028°39'0 0.0
2018-Jun-17 17:00N 44°10' E 028°39'0 0.0
2018-Jun-17 16:30N 44°10' E 028°39'0 0.0
2018-Jun-17 16:00N 44°10' E 028°39'0 0.0
2018-Jun-17 15:30N 44°10' E 028°39'0 0.0
2018-Jun-17 15:00N 44°10' E 028°39'0 0.0
2018-Jun-17 14:30N 44°10' E 028°39'0 0.0
2018-Jun-17 14:00N 44°10' E 028°39'0 0.0
2018-Jun-17 13:30N 44°10' E 028°39'0 0.0
2018-Jun-17 13:00N 44°10' E 028°39'0 0.1
2018-Jun-17 12:30N 44°10' E 028°39'0 0.1
2018-Jun-17 12:00N 44°10' E 028°39'0 0.0
2018-Jun-17 11:30N 44°10' E 028°39'0 0.0
2018-Jun-17 11:00N 44°10' E 028°39'0 0.0
2018-Jun-17 10:30N 44°10' E 028°39'0 0.0
2018-Jun-17 10:00N 44°10' E 028°39'0 0.0
2018-Jun-17 09:30N 44°10' E 028°39'0 0.0
2018-Jun-17 08:57N 44°10' E 028°39'0 0.1
2018-Jun-17 08:30N 44°10' E 028°39'0 0.1
2018-Jun-17 07:57N 44°10' E 028°39'0 0.0
2018-Jun-17 07:30N 44°10' E 028°39'0 0.0
2018-Jun-17 07:00N 44°10' E 028°39'0 0.0
2018-Jun-17 06:30N 44°10' E 028°39'0 0.0
2018-Jun-17 06:00N 44°10' E 028°39'0 0.0
2018-Jun-17 05:30N 44°10' E 028°39'0 0.0
2018-Jun-17 05:00N 44°10' E 028°39'0 0.0
2018-Jun-17 04:30N 44°10' E 028°39'0 0.0
2018-Jun-17 04:00N 44°10' E 028°39'0 0.0
2018-Jun-17 03:27N 44°10' E 028°39'0 0.0
2018-Jun-17 03:00N 44°10' E 028°39'0 0.0
2018-Jun-17 02:30N 44°10' E 028°39'0 0.0
2018-Jun-17 02:00N 44°10' E 028°39'0 0.1
2018-Jun-17 01:29N 44°10' E 028°39'0 0.0
2018-Jun-17 00:59N 44°10' E 028°39'0 0.0
2018-Jun-17 00:29N 44°10' E 028°39'0 0.0
2018-Jun-16 23:59N 44°10' E 028°39'0 0.0
2018-Jun-16 23:29N 44°10' E 028°39'0 0.0
2018-Jun-16 22:59N 44°10' E 028°39'0 0.0
2018-Jun-16 22:29N 44°10' E 028°39'0 0.0
2018-Jun-16 21:59N 44°10' E 028°39'0 0.0
2018-Jun-16 21:29N 44°10' E 028°39'0 0.0
2018-Jun-16 20:59N 44°10' E 028°39'0 0.0
2018-Jun-16 20:29N 44°10' E 028°39'0 0.0
2018-Jun-16 19:59N 44°10' E 028°39'0 0.0
2018-Jun-16 19:29N 44°10' E 028°39'0 0.0
2018-Jun-16 18:59N 44°10' E 028°39'0 0.0
2018-Jun-16 18:29N 44°10' E 028°39'0 0.0
2018-Jun-16 17:59N 44°10' E 028°39'0 0.0
2018-Jun-16 17:29N 44°10' E 028°39'0 0.0
2018-Jun-16 16:59N 44°10' E 028°39'0 0.0
2018-Jun-16 16:29N 44°10' E 028°39'0 0.0
2018-Jun-16 15:59N 44°10' E 028°39'0 0.0
2018-Jun-16 15:29N 44°10' E 028°39'0 0.0
2018-Jun-16 14:56N 44°10' E 028°39'0 0.0
2018-Jun-16 14:29N 44°10' E 028°39'0 0.0
2018-Jun-16 13:59N 44°10' E 028°39'0 0.0
2018-Jun-16 13:29N 44°10' E 028°39'0 0.0
2018-Jun-16 12:59N 44°10' E 028°39'0 0.0
2018-Jun-16 12:29N 44°10' E 028°39'0 0.0
2018-Jun-16 11:59N 44°10' E 028°39'0 0.0
2018-Jun-16 11:29N 44°10' E 028°39'0 0.0
2018-Jun-16 10:59N 44°10' E 028°39'0 0.0
2018-Jun-16 10:29N 44°10' E 028°39'0 0.0
2018-Jun-16 09:59N 44°10' E 028°39'0 0.0
2018-Jun-16 09:29N 44°10' E 028°39'0 0.0
2018-Jun-16 08:59N 44°10' E 028°39'0 0.0
2018-Jun-16 08:29N 44°10' E 028°39'0 0.0
2018-Jun-16 07:59N 44°10' E 028°39'0 0.0
2018-Jun-16 07:29N 44°10' E 028°39'0 0.0
2018-Jun-16 06:56N 44°10' E 028°39'0 0.0
2018-Jun-16 06:29N 44°10' E 028°39'0 0.0
2018-Jun-16 05:59N 44°10' E 028°39'0 0.0
2018-Jun-16 05:23N 44°10' E 028°39'0 0.0
2018-Jun-16 04:56N 44°10' E 028°39'0 0.0
2018-Jun-16 04:29N 44°10' E 028°39'0 0.0
2018-Jun-16 03:56N 44°10' E 028°39'0 0.0
2018-Jun-16 03:29N 44°10' E 028°39'0 0.0
2018-Jun-16 02:56N 44°10' E 028°39'0 0.0
2018-Jun-16 02:29N 44°10' E 028°39'0 0.0
2018-Jun-16 01:59N 44°10' E 028°39'0 0.0
2018-Jun-16 01:29N 44°10' E 028°39'0 0.0
2018-Jun-16 00:56N 44°10' E 028°39'0 0.0
2018-Jun-16 00:29N 44°10' E 028°39'0 0.0
2018-Jun-15 23:59N 44°10' E 028°39'0 0.0
2018-Jun-15 23:29N 44°10' E 028°39'0 0.0
2018-Jun-15 22:59N 44°10' E 028°39'0 0.0
2018-Jun-15 22:26N 44°10' E 028°39'0 0.0
2018-Jun-15 21:59N 44°10' E 028°39'0 0.0
2018-Jun-15 21:29N 44°10' E 028°39'0 0.0
2018-Jun-15 20:59N 44°10' E 028°39'0 0.0
2018-Jun-15 20:26N 44°10' E 028°39'0 0.0
2018-Jun-15 19:50N 44°10' E 028°39'0 0.0
2018-Jun-15 19:29N 44°10' E 028°39'0 0.0
2018-Jun-15 18:59N 44°10' E 028°39'0 0.0
2018-Jun-15 18:29N 44°10' E 028°39'0 0.0
2018-Jun-15 17:50N 44°10' E 028°39'0 0.0
2018-Jun-15 17:29N 44°10' E 028°39'0 0.0
2018-Jun-15 16:59N 44°10' E 028°39'0 0.0
2018-Jun-15 16:26N 44°10' E 028°39'0 0.0
2018-Jun-15 15:59N 44°10' E 028°39'0 0.0
2018-Jun-15 15:28N 44°10' E 028°39'0 0.0
2018-Jun-15 14:58N 44°10' E 028°39'0 0.0
2018-Jun-15 14:28N 44°10' E 028°39'0 0.0
2018-Jun-15 13:49N 44°10' E 028°39'0 0.0
2018-Jun-15 13:28N 44°10' E 028°39'0 0.0
2018-Jun-15 12:58N 44°10' E 028°39'0 0.0
2018-Jun-15 12:28N 44°10' E 028°39'0 0.0
2018-Jun-15 11:58N 44°10' E 028°39'0 0.0
2018-Jun-15 11:25N 44°10' E 028°39'0 0.0
2018-Jun-15 10:58N 44°10' E 028°39'0 0.0
2018-Jun-15 10:28N 44°10' E 028°39'0 0.0
2018-Jun-15 09:58N 44°10' E 028°39'0 0.0
2018-Jun-15 09:28N 44°10' E 028°39'0 0.0
2018-Jun-15 08:58N 44°10' E 028°39'0 0.0
2018-Jun-15 08:28N 44°10' E 028°39'0 0.0
2018-Jun-15 07:58N 44°10' E 028°39'0 0.0
2018-Jun-15 07:28N 44°10' E 028°39'0 0.0
2018-Jun-15 06:58N 44°10' E 028°39'0 0.0
2018-Jun-15 06:25N 44°10' E 028°39'0 0.0
2018-Jun-15 05:55N 44°10' E 028°39'0 0.0
2018-Jun-15 05:28N 44°10' E 028°39'0 0.1
2018-Jun-15 04:58N 44°10' E 028°39'0 0.0
2018-Jun-15 04:28N 44°10' E 028°39'0 0.0
2018-Jun-15 03:58N 44°10' E 028°39'0 0.0
2018-Jun-15 03:28N 44°10' E 028°39'0 0.0
2018-Jun-15 02:55N 44°10' E 028°39'0 0.0
2018-Jun-15 02:28N 44°10' E 028°39'0 0.0
2018-Jun-15 01:58N 44°10' E 028°39'0 0.0
2018-Jun-15 01:28N 44°10' E 028°39'0 0.0
2018-Jun-15 00:58N 44°10' E 028°39'0 0.0
2018-Jun-15 00:28N 44°10' E 028°39'0 0.0
2018-Jun-14 23:58N 44°10' E 028°39'0 0.0
2018-Jun-14 23:28N 44°10' E 028°39'0 0.0
2018-Jun-14 22:58N 44°10' E 028°39'0 0.0
2018-Jun-14 22:28N 44°10' E 028°39'0 0.0
2018-Jun-14 21:58N 44°10' E 028°39'0 0.0
2018-Jun-14 21:28N 44°10' E 028°39'0 0.0
2018-Jun-14 20:52N 44°10' E 028°39'0 0.0
2018-Jun-14 20:28N 44°10' E 028°39'0 0.0
2018-Jun-14 19:58N 44°10' E 028°39'0 0.0
2018-Jun-14 19:25N 44°10' E 028°39'0 0.0
2018-Jun-14 18:58N 44°10' E 028°39'0 0.0
2018-Jun-14 18:30N 44°10' E 028°39'0 0.0
2018-Jun-14 18:00N 44°10' E 028°39'0 0.0
2018-Jun-14 16:46N 44°10' E 028°39'0 0.0
2018-Jun-14 16:25N 44°10' E 028°39'0 0.0
2018-Jun-14 14:21N 44°10' E 028°39'0 0.0
2018-Jun-14 13:43N 44°10' E 028°39'0 0.0
2018-Jun-14 13:20N 44°10' E 028°39'0 0.0
2018-Jun-14 12:55N 44°10' E 028°39'0 0.0
2018-Jun-14 12:25N 44°10' E 028°39'0 0.0
2018-Jun-14 11:58N 44°10' E 028°39'0 0.0
2018-Jun-14 11:28N 44°10' E 028°39'0 0.1
2018-Jun-14 10:55N 44°10' E 028°39'0 0.1
2018-Jun-14 10:28N 44°10' E 028°39'0 0.0
2018-Jun-14 09:58N 44°10' E 028°39'0 0.0
2018-Jun-14 09:28N 44°10' E 028°39'0 0.0
2018-Jun-14 08:58N 44°10' E 028°39'0 0.0
2018-Jun-14 08:28N 44°10' E 028°39'0 0.0
2018-Jun-14 07:58N 44°10' E 028°39'0 0.0
2018-Jun-14 07:28N 44°10' E 028°39'0 0.0
2018-Jun-14 06:58N 44°10' E 028°39'0 0.0
2018-Jun-14 06:31N 44°10' E 028°39'0 0.0
2018-Jun-14 05:58N 44°10' E 028°39'0 0.0
2018-Jun-14 05:27N 44°10' E 028°39'0 0.0
2018-Jun-14 05:00N 44°10' E 028°39'0 0.0
2018-Jun-14 04:30N 44°10' E 028°39'0 0.0
2018-Jun-14 03:57N 44°10' E 028°39'0 0.0
2018-Jun-14 03:30N 44°10' E 028°39'0 0.0
2018-Jun-14 03:00N 44°10' E 028°39'0 0.0
2018-Jun-14 02:30N 44°10' E 028°39'0 0.0
2018-Jun-14 02:00N 44°10' E 028°39'0 0.0
2018-Jun-14 01:30N 44°10' E 028°39'0 0.0
2018-Jun-14 01:00N 44°10' E 028°39'0 0.0
2018-Jun-14 00:30N 44°10' E 028°39'0 0.0
2018-Jun-14 00:00N 44°10' E 028°39'0 0.0
2018-Jun-13 23:30N 44°10' E 028°39'0 0.0
2018-Jun-13 22:57N 44°10' E 028°39'0 0.0
2018-Jun-13 22:24N 44°10' E 028°39'0 0.0
2018-Jun-13 22:00N 44°10' E 028°39'0 0.0
2018-Jun-13 21:30N 44°10' E 028°39'0 0.0
2018-Jun-13 20:57N 44°10' E 028°39'0 0.0
2018-Jun-13 20:27N 44°10' E 028°39'0 0.0
2018-Jun-13 19:57N 44°10' E 028°39'0 0.0
2018-Jun-13 19:30N 44°10' E 028°39'0 0.0
2018-Jun-13 19:00N 44°10' E 028°39'0 0.0
2018-Jun-13 18:30N 44°10' E 028°39'0 0.0
2018-Jun-13 18:00N 44°10' E 028°39'0 0.0
2018-Jun-13 17:27N 44°10' E 028°39'0 0.0
2018-Jun-13 16:54N 44°10' E 028°39'0 0.0
2018-Jun-13 16:24N 44°10' E 028°39'0 0.0
2018-Jun-13 16:00N 44°10' E 028°39'0 0.0
2018-Jun-13 15:24N 44°10' E 028°39'0 0.0
2018-Jun-13 15:00N 44°10' E 028°39'1 2.9
2018-Jun-13 14:30N 44°09' E 028°40'4 7.8
2018-Jun-13 14:00N 44°06' E 028°44'3 6.9
2018-Jun-13 13:30N 44°07' E 028°48'4 7.6
2018-Jun-13 13:00N 44°10' E 028°52'4 7.8
2018-Jun-13 12:30N 44°12' E 028°56'4 8.1
2018-Jun-13 12:00N 44°15' E 029°00'4 8.4
2018-Jun-13 11:30N 44°18' E 029°05'4 8.5
2018-Jun-13 11:01N 44°21' E 029°09'4 8.3
2018-Jun-13 10:30N 44°23' E 029°14'4 8.2
2018-Jun-13 10:00N 44°26' E 029°18'4 8.3
2018-Jun-13 09:30N 44°29' E 029°23'4 8.3
2018-Jun-13 09:00N 44°31' E 029°27'1 2.0
2018-Jun-13 08:30N 44°32' E 029°28'0 0.0
2018-Jun-13 07:59N 44°32' E 029°28'0 0.0
2018-Jun-13 04:58N 44°32' E 029°28'0 0.0
2018-Jun-13 02:26N 44°32' E 029°28'1 2.7
2018-Jun-13 02:00N 44°33' E 029°29'0 0.0
2018-Jun-13 01:18N 44°33' E 029°29'0 0.0
2018-Jun-13 01:00N 44°33' E 029°29'0 0.0
2018-Jun-13 00:30N 44°33' E 029°29'  
Track history (hours):
 
Tides and Currents Weather Stations Pressure Air Temp Water Temp Dewpoint Dewpoint Depression Visibility Wind Speed Wind Dir Waves Ship Positions

Gsp King

Last reported at 2018-Jun-23 00:29 UTC. Time now 2018-Jun-23 00:42 UTC.
Position N 44°10' E 028°39'.

Length 70 m; draft 5.9 m.

Type: Tug. MMSI: 236290000.

Date/timePositionNaut miles runAvg speedWind from/ knotsBaromVisibWave heightAir tempDewpointWater temp
2018-Jun-23 00:29N 44°10' E 028°39'0 0.0
2018-Jun-22 23:59N 44°10' E 028°39'0 0.0
2018-Jun-22 23:29N 44°10' E 028°39'0 0.0
2018-Jun-22 22:59N 44°10' E 028°39'0 0.0
2018-Jun-22 22:29N 44°10' E 028°39'0 0.0
2018-Jun-22 21:59N 44°10' E 028°39'0 0.0
2018-Jun-22 21:29N 44°10' E 028°39'0 0.0
2018-Jun-22 20:59N 44°10' E 028°39'0 0.0
2018-Jun-22 20:29N 44°10' E 028°39'0 0.0
2018-Jun-22 19:59N 44°10' E 028°39'0 0.0
2018-Jun-22 19:29N 44°10' E 028°39'0 0.0
2018-Jun-22 18:59N 44°10' E 028°39'0 0.0
2018-Jun-22 18:29N 44°10' E 028°39'0 0.0
2018-Jun-22 17:56N 44°10' E 028°39'0 0.0
2018-Jun-22 17:29N 44°10' E 028°39'0 0.0
2018-Jun-22 16:59N 44°10' E 028°39'0 0.0
2018-Jun-22 16:29N 44°10' E 028°39'0 0.0
2018-Jun-22 15:56N 44°10' E 028°39'0 0.0
2018-Jun-22 15:29N 44°10' E 028°39'0 0.0
2018-Jun-22 14:59N 44°10' E 028°39'0 0.0
2018-Jun-22 14:29N 44°10' E 028°39'0 0.0
2018-Jun-22 13:59N 44°10' E 028°39'0 0.0
2018-Jun-22 13:29N 44°10' E 028°39'0 0.0
2018-Jun-22 12:59N 44°10' E 028°39'0 0.0
2018-Jun-22 12:29N 44°10' E 028°39'0 0.0
2018-Jun-22 11:59N 44°10' E 028°39'0 0.0
2018-Jun-22 11:29N 44°10' E 028°39'0 0.0
2018-Jun-22 10:50N 44°10' E 028°39'0 0.0
2018-Jun-22 10:26N 44°10' E 028°39'0 0.0
2018-Jun-22 09:59N 44°10' E 028°39'0 0.0
2018-Jun-22 09:29N 44°10' E 028°39'0 0.0
2018-Jun-22 08:59N 44°10' E 028°39'0 0.0
2018-Jun-22 08:26N 44°10' E 028°39'0 0.0
2018-Jun-22 07:59N 44°10' E 028°39'0 0.0
2018-Jun-22 07:29N 44°10' E 028°39'0 0.0
2018-Jun-22 06:59N 44°10' E 028°39'0 0.0
2018-Jun-22 06:29N 44°10' E 028°39'0 0.0
2018-Jun-22 05:59N 44°10' E 028°39'0 0.0
2018-Jun-22 05:29N 44°10' E 028°39'0 0.1
2018-Jun-22 05:00N 44°10' E 028°39'1 3.0
2018-Jun-22 04:30N 44°09' E 028°40'4 7.8
2018-Jun-22 04:00N 44°05' E 028°43'4 7.3
2018-Jun-22 03:30N 44°07' E 028°48'4 8.6
2018-Jun-22 03:00N 44°10' E 028°52'4 8.7
2018-Jun-22 02:30N 44°13' E 028°56'4 8.7
2018-Jun-22 02:00N 44°16' E 029°00'4 8.7
2018-Jun-22 01:30N 44°19' E 029°05'4 8.7
2018-Jun-22 01:00N 44°21' E 029°10'4 8.6
2018-Jun-22 00:30N 44°24' E 029°15'4 8.6
2018-Jun-22 00:00N 44°27' E 029°19'4 8.7
2018-Jun-21 23:30N 44°30' E 029°24'4 7.6
2018-Jun-21 23:00N 44°32' E 029°28'0 0.0
2018-Jun-21 22:30N 44°32' E 029°28'0 0.0
2018-Jun-21 22:00N 44°32' E 029°28'0 0.0
2018-Jun-21 21:28N 44°32' E 029°28'0 0.0
2018-Jun-21 20:36N 44°32' E 029°28'0 0.0
2018-Jun-21 20:19N 44°32' E 029°28'0 0.0
2018-Jun-21 19:59N 44°32' E 029°28'0 0.0
2018-Jun-21 19:30N 44°32' E 029°28'0 0.0
2018-Jun-21 19:00N 44°32' E 029°28'0 0.0
2018-Jun-21 18:30N 44°32' E 029°28'0 0.0
2018-Jun-21 18:00N 44°32' E 029°28'0 0.0
2018-Jun-21 17:30N 44°32' E 029°28'0 0.0
2018-Jun-21 17:00N 44°32' E 029°28'0 0.0
2018-Jun-21 16:30N 44°32' E 029°28'0 0.0
2018-Jun-21 16:00N 44°32' E 029°28'0 0.0
2018-Jun-21 15:30N 44°32' E 029°28'0 0.0
2018-Jun-21 15:00N 44°32' E 029°28'0 0.0
2018-Jun-21 14:30N 44°32' E 029°28'0 0.0
2018-Jun-21 14:00N 44°32' E 029°28'0 0.0
2018-Jun-21 13:30N 44°32' E 029°28'0 0.0
2018-Jun-21 12:53N 44°32' E 029°28'0 0.0
2018-Jun-21 12:30N 44°32' E 029°28'0 0.0
2018-Jun-21 12:00N 44°32' E 029°28'1 2.7
2018-Jun-21 11:30N 44°33' E 029°29'0 0.1
2018-Jun-21 10:55N 44°33' E 029°29'0 0.0
2018-Jun-21 10:28N 44°33' E 029°29'0 0.0
2018-Jun-21 09:58N 44°33' E 029°29'0 0.0
2018-Jun-21 09:22N 44°33' E 029°29'0 0.0
2018-Jun-21 08:43N 44°33' E 029°29'0 0.0
2018-Jun-21 08:22N 44°33' E 029°29'0 0.0
2018-Jun-21 06:58N 44°33' E 029°29'0 0.0
2018-Jun-21 05:46N 44°33' E 029°29'0 0.0
2018-Jun-21 04:16N 44°33' E 029°29'0 0.0
2018-Jun-21 03:46N 44°33' E 029°29'0 0.0
2018-Jun-21 00:46N 44°33' E 029°29'0 0.0
2018-Jun-21 00:28N 44°33' E 029°29'0 0.0
2018-Jun-20 23:52N 44°33' E 029°29'0 0.0
2018-Jun-20 23:16N 44°33' E 029°29'0 0.0
2018-Jun-20 22:43N 44°33' E 029°29'0 0.0
2018-Jun-20 22:28N 44°33' E 029°29'0 0.0
2018-Jun-20 21:52N 44°33' E 029°29'0 0.0
2018-Jun-20 21:25N 44°33' E 029°29'0 0.0
2018-Jun-20 20:58N 44°33' E 029°29'0 0.0
2018-Jun-20 20:07N 44°33' E 029°29'0 0.0
2018-Jun-20 19:58N 44°33' E 029°29'0 0.0
2018-Jun-20 19:28N 44°33' E 029°29'0 0.0
2018-Jun-20 18:55N 44°33' E 029°29'0 0.0
2018-Jun-20 18:25N 44°33' E 029°29'0 0.0
2018-Jun-20 17:58N 44°33' E 029°29'0 0.0
2018-Jun-20 17:31N 44°33' E 029°29'1 2.8
2018-Jun-20 17:01N 44°32' E 029°28'0 0.0
2018-Jun-20 16:31N 44°32' E 029°28'0 0.0
2018-Jun-20 16:00N 44°32' E 029°28'0 0.0
2018-Jun-20 15:30N 44°32' E 029°28'0 0.0
2018-Jun-20 15:00N 44°32' E 029°28'0 0.0
2018-Jun-20 14:30N 44°32' E 029°28'0 0.0
2018-Jun-20 14:00N 44°32' E 029°28'0 0.0
2018-Jun-20 13:30N 44°32' E 029°28'0 0.0
2018-Jun-20 12:56N 44°32' E 029°28'0 0.0
2018-Jun-20 12:28N 44°32' E 029°28'0 0.0
2018-Jun-20 11:52N 44°32' E 029°28'0 0.0
2018-Jun-20 11:29N 44°32' E 029°28'0 0.0
2018-Jun-20 10:56N 44°32' E 029°28'0 0.0
2018-Jun-20 06:37N 44°32' E 029°28'0 0.0
2018-Jun-20 06:29N 44°32' E 029°28'0 0.0
2018-Jun-20 06:00N 44°32' E 029°28'0 0.0
2018-Jun-20 05:28N 44°32' E 029°28'0 0.0
2018-Jun-20 05:00N 44°32' E 029°28'0 0.1
2018-Jun-20 04:30N 44°32' E 029°28'1 3.0
2018-Jun-20 04:00N 44°33' E 029°29'0 0.1
2018-Jun-20 03:27N 44°33' E 029°29'0 0.0
2018-Jun-20 03:00N 44°33' E 029°29'0 0.0
2018-Jun-20 02:30N 44°33' E 029°29'0 0.0
2018-Jun-20 02:00N 44°33' E 029°29'0 0.0
2018-Jun-20 01:30N 44°33' E 029°29'0 0.0
2018-Jun-20 01:00N 44°33' E 029°29'0 0.0
2018-Jun-20 00:30N 44°33' E 029°29'0 0.0
2018-Jun-20 00:00N 44°33' E 029°29'0 0.0
2018-Jun-19 23:30N 44°33' E 029°29'0 0.0
2018-Jun-19 23:00N 44°33' E 029°29'0 0.0
2018-Jun-19 22:27N 44°33' E 029°29'0 0.0
2018-Jun-19 21:57N 44°33' E 029°29'0 0.0
2018-Jun-19 21:27N 44°33' E 029°29'0 0.0
2018-Jun-19 21:00N 44°33' E 029°29'0 0.0
2018-Jun-19 20:30N 44°33' E 029°29'0 0.0
2018-Jun-19 19:57N 44°33' E 029°29'1 2.1
2018-Jun-19 19:30N 44°32' E 029°29'1 1.1
2018-Jun-19 19:01N 44°32' E 029°28'0 0.0
2018-Jun-19 18:30N 44°32' E 029°28'0 0.0
2018-Jun-19 18:00N 44°32' E 029°28'1 2.9
2018-Jun-19 17:31N 44°33' E 029°29'0 0.3
2018-Jun-19 16:58N 44°33' E 029°29'0 0.0
2018-Jun-19 16:28N 44°33' E 029°29'0 0.0
2018-Jun-19 15:58N 44°33' E 029°29'0 0.0
2018-Jun-19 15:28N 44°33' E 029°29'0 0.0
2018-Jun-19 14:58N 44°33' E 029°29'0 0.0
2018-Jun-19 14:25N 44°33' E 029°29'0 0.0
2018-Jun-19 13:58N 44°33' E 029°29'0 0.0
2018-Jun-19 13:28N 44°33' E 029°29'0 0.0
2018-Jun-19 13:00N 44°33' E 029°29'0 0.0
2018-Jun-19 12:30N 44°33' E 029°29'0 0.0
2018-Jun-19 12:00N 44°33' E 029°29'0 0.0
2018-Jun-19 11:27N 44°33' E 029°29'0 0.0
2018-Jun-19 10:54N 44°33' E 029°29'0 0.0
2018-Jun-19 10:27N 44°33' E 029°29'0 0.0
2018-Jun-19 10:00N 44°33' E 029°29'0 0.0
2018-Jun-19 09:30N 44°33' E 029°29'0 0.0
2018-Jun-19 09:00N 44°33' E 029°29'0 0.0
2018-Jun-19 08:21N 44°33' E 029°29'0 0.0
2018-Jun-19 08:00N 44°33' E 029°29'0 0.0
2018-Jun-19 07:30N 44°33' E 029°29'0 0.0
2018-Jun-19 06:59N 44°33' E 029°29'0 0.0
2018-Jun-19 06:30N 44°33' E 029°29'0 0.0
2018-Jun-19 05:00N 44°33' E 029°29'0 0.0
2018-Jun-19 04:30N 44°33' E 029°29'0 0.0
2018-Jun-19 04:00N 44°33' E 029°29'0 0.0
2018-Jun-19 03:30N 44°33' E 029°29'0 0.0
2018-Jun-19 03:00N 44°33' E 029°29'0 0.0
2018-Jun-19 02:27N 44°33' E 029°29'0 0.0
2018-Jun-19 02:00N 44°33' E 029°29'0 0.0
2018-Jun-19 01:30N 44°33' E 029°29'0 0.0
2018-Jun-19 01:00N 44°33' E 029°29'0 0.0
2018-Jun-19 00:27N 44°33' E 029°29'0 0.0
2018-Jun-18 23:57N 44°33' E 029°29'1 3.3
2018-Jun-18 23:30N 44°32' E 029°28'0 0.2
2018-Jun-18 23:00N 44°32' E 029°28'0 0.0
2018-Jun-18 22:30N 44°32' E 029°28'0 0.0
2018-Jun-18 22:00N 44°32' E 029°28'0 0.0
2018-Jun-18 21:30N 44°32' E 029°28'0 0.0
2018-Jun-18 21:00N 44°32' E 029°28'0 0.0
2018-Jun-18 20:30N 44°32' E 029°28'0 0.0
2018-Jun-18 20:00N 44°32' E 029°28'0 0.0
2018-Jun-18 19:30N 44°32' E 029°28'0 0.0
2018-Jun-18 19:00N 44°32' E 029°28'0 0.0
2018-Jun-18 18:30N 44°32' E 029°28'0 0.0
2018-Jun-18 18:00N 44°32' E 029°28'0 0.0
2018-Jun-18 17:30N 44°32' E 029°28'0 0.0
2018-Jun-18 17:00N 44°32' E 029°28'0 0.0
2018-Jun-18 16:22N 44°32' E 029°28'0 0.0
2018-Jun-18 16:00N 44°32' E 029°28'0 0.2
2018-Jun-18 15:30N 44°32' E 029°28'1 2.3
2018-Jun-18 14:55N 44°31' E 029°27'5 8.7
2018-Jun-18 14:23N 44°28' E 029°22'3 8.6
2018-Jun-18 14:00N 44°26' E 029°18'4 8.5
2018-Jun-18 13:30N 44°23' E 029°14'4 8.5
2018-Jun-18 13:00N 44°21' E 029°09'4 8.5
2018-Jun-18 12:30N 44°18' E 029°04'4 8.6
2018-Jun-18 12:00N 44°15' E 028°60'4 8.5
2018-Jun-18 11:30N 44°12' E 028°55'4 8.4
2018-Jun-18 11:00N 44°10' E 028°51'4 8.4
2018-Jun-18 10:30N 44°07' E 028°47'3 6.6
2018-Jun-18 10:00N 44°07' E 028°42'4 7.6
2018-Jun-18 09:30N 44°10' E 028°39'0 0.2
2018-Jun-18 09:00N 44°10' E 028°39'0 0.0
2018-Jun-18 08:24N 44°10' E 028°39'0 0.0
2018-Jun-18 07:54N 44°10' E 028°39'0 0.0
2018-Jun-18 07:30N 44°10' E 028°39'0 0.0
2018-Jun-18 07:00N 44°10' E 028°39'0 0.0
2018-Jun-18 06:30N 44°10' E 028°39'0 0.0
2018-Jun-18 06:00N 44°10' E 028°39'0 0.0
2018-Jun-18 05:30N 44°10' E 028°39'0 0.0
2018-Jun-18 05:00N 44°10' E 028°39'0 0.0
2018-Jun-18 04:30N 44°10' E 028°39'0 0.0
2018-Jun-18 04:00N 44°10' E 028°39'0 0.0
2018-Jun-18 03:30N 44°10' E 028°39'0 0.0
2018-Jun-18 03:00N 44°10' E 028°39'0 0.0
2018-Jun-18 02:30N 44°10' E 028°39'0 0.0
2018-Jun-18 02:00N 44°10' E 028°39'0 0.0
2018-Jun-18 01:30N 44°10' E 028°39'0 0.0
2018-Jun-18 00:57N 44°10' E 028°39'0 0.0
2018-Jun-18 00:30N 44°10' E 028°39'0 0.0
2018-Jun-18 00:00N 44°10' E 028°39'0 0.0
2018-Jun-17 23:30N 44°10' E 028°39'0 0.0
2018-Jun-17 23:00N 44°10' E 028°39'0 0.0
2018-Jun-17 22:30N 44°10' E 028°39'0 0.0
2018-Jun-17 22:00N 44°10' E 028°39'0 0.0
2018-Jun-17 21:30N 44°10' E 028°39'0 0.0
2018-Jun-17 21:00N 44°10' E 028°39'0 0.0
2018-Jun-17 20:30N 44°10' E 028°39'0 0.0
2018-Jun-17 20:00N 44°10' E 028°39'0 0.0
2018-Jun-17 19:30N 44°10' E 028°39'0 0.0
2018-Jun-17 19:00N 44°10' E 028°39'0 0.0
2018-Jun-17 18:30N 44°10' E 028°39'0 0.0
2018-Jun-17 18:00N 44°10' E 028°39'0 0.0
2018-Jun-17 17:30N 44°10' E 028°39'0 0.0
2018-Jun-17 17:00N 44°10' E 028°39'0 0.0
2018-Jun-17 16:30N 44°10' E 028°39'0 0.0
2018-Jun-17 16:00N 44°10' E 028°39'0 0.0
2018-Jun-17 15:30N 44°10' E 028°39'0 0.0
2018-Jun-17 15:00N 44°10' E 028°39'0 0.0
2018-Jun-17 14:30N 44°10' E 028°39'0 0.0
2018-Jun-17 14:00N 44°10' E 028°39'0 0.0
2018-Jun-17 13:30N 44°10' E 028°39'0 0.0
2018-Jun-17 13:00N 44°10' E 028°39'0 0.1
2018-Jun-17 12:30N 44°10' E 028°39'0 0.1
2018-Jun-17 12:00N 44°10' E 028°39'0 0.0
2018-Jun-17 11:30N 44°10' E 028°39'0 0.0
2018-Jun-17 11:00N 44°10' E 028°39'0 0.0
2018-Jun-17 10:30N 44°10' E 028°39'0 0.0
2018-Jun-17 10:00N 44°10' E 028°39'0 0.0
2018-Jun-17 09:30N 44°10' E 028°39'0 0.0
2018-Jun-17 08:57N 44°10' E 028°39'0 0.1
2018-Jun-17 08:30N 44°10' E 028°39'0 0.1
2018-Jun-17 07:57N 44°10' E 028°39'0 0.0
2018-Jun-17 07:30N 44°10' E 028°39'0 0.0
2018-Jun-17 07:00N 44°10' E 028°39'0 0.0
2018-Jun-17 06:30N 44°10' E 028°39'0 0.0
2018-Jun-17 06:00N 44°10' E 028°39'0 0.0
2018-Jun-17 05:30N 44°10' E 028°39'0 0.0
2018-Jun-17 05:00N 44°10' E 028°39'0 0.0
2018-Jun-17 04:30N 44°10' E 028°39'0 0.0
2018-Jun-17 04:00N 44°10' E 028°39'0 0.0
2018-Jun-17 03:27N 44°10' E 028°39'0 0.0
2018-Jun-17 03:00N 44°10' E 028°39'0 0.0
2018-Jun-17 02:30N 44°10' E 028°39'0 0.0
2018-Jun-17 02:00N 44°10' E 028°39'0 0.1
2018-Jun-17 01:29N 44°10' E 028°39'0 0.0
2018-Jun-17 00:59N 44°10' E 028°39'0 0.0
2018-Jun-17 00:29N 44°10' E 028°39'0 0.0
2018-Jun-16 23:59N 44°10' E 028°39'0 0.0
2018-Jun-16 23:29N 44°10' E 028°39'0 0.0
2018-Jun-16 22:59N 44°10' E 028°39'0 0.0
2018-Jun-16 22:29N 44°10' E 028°39'0 0.0
2018-Jun-16 21:59N 44°10' E 028°39'0 0.0
2018-Jun-16 21:29N 44°10' E 028°39'0 0.0
2018-Jun-16 20:59N 44°10' E 028°39'0 0.0
2018-Jun-16 20:29N 44°10' E 028°39'0 0.0
2018-Jun-16 19:59N 44°10' E 028°39'0 0.0
2018-Jun-16 19:29N 44°10' E 028°39'0 0.0
2018-Jun-16 18:59N 44°10' E 028°39'0 0.0
2018-Jun-16 18:29N 44°10' E 028°39'0 0.0
2018-Jun-16 17:59N 44°10' E 028°39'0 0.0
2018-Jun-16 17:29N 44°10' E 028°39'0 0.0
2018-Jun-16 16:59N 44°10' E 028°39'0 0.0
2018-Jun-16 16:29N 44°10' E 028°39'0 0.0
2018-Jun-16 15:59N 44°10' E 028°39'0 0.0
2018-Jun-16 15:29N 44°10' E 028°39'0 0.0
2018-Jun-16 14:56N 44°10' E 028°39'0 0.0
2018-Jun-16 14:29N 44°10' E 028°39'0 0.0
2018-Jun-16 13:59N 44°10' E 028°39'0 0.0
2018-Jun-16 13:29N 44°10' E 028°39'0 0.0
2018-Jun-16 12:59N 44°10' E 028°39'0 0.0
2018-Jun-16 12:29N 44°10' E 028°39'0 0.0
2018-Jun-16 11:59N 44°10' E 028°39'0 0.0
2018-Jun-16 11:29N 44°10' E 028°39'0 0.0
2018-Jun-16 10:59N 44°10' E 028°39'0 0.0
2018-Jun-16 10:29N 44°10' E 028°39'0 0.0
2018-Jun-16 09:59N 44°10' E 028°39'0 0.0
2018-Jun-16 09:29N 44°10' E 028°39'0 0.0
2018-Jun-16 08:59N 44°10' E 028°39'0 0.0
2018-Jun-16 08:29N 44°10' E 028°39'0 0.0
2018-Jun-16 07:59N 44°10' E 028°39'0 0.0
2018-Jun-16 07:29N 44°10' E 028°39'0 0.0
2018-Jun-16 06:56N 44°10' E 028°39'0 0.0
2018-Jun-16 06:29N 44°10' E 028°39'0 0.0
2018-Jun-16 05:59N 44°10' E 028°39'0 0.0
2018-Jun-16 05:23N 44°10' E 028°39'0 0.0
2018-Jun-16 04:56N 44°10' E 028°39'0 0.0
2018-Jun-16 04:29N 44°10' E 028°39'0 0.0
2018-Jun-16 03:56N 44°10' E 028°39'0 0.0
2018-Jun-16 03:29N 44°10' E 028°39'0 0.0
2018-Jun-16 02:56N 44°10' E 028°39'0 0.0
2018-Jun-16 02:29N 44°10' E 028°39'0 0.0
2018-Jun-16 01:59N 44°10' E 028°39'0 0.0
2018-Jun-16 01:29N 44°10' E 028°39'0 0.0
2018-Jun-16 00:56N 44°10' E 028°39'0 0.0
2018-Jun-16 00:29N 44°10' E 028°39'0 0.0
2018-Jun-15 23:59N 44°10' E 028°39'0 0.0
2018-Jun-15 23:29N 44°10' E 028°39'0 0.0
2018-Jun-15 22:59N 44°10' E 028°39'0 0.0
2018-Jun-15 22:26N 44°10' E 028°39'0 0.0
2018-Jun-15 21:59N 44°10' E 028°39'0 0.0
2018-Jun-15 21:29N 44°10' E 028°39'0 0.0
2018-Jun-15 20:59N 44°10' E 028°39'0 0.0
2018-Jun-15 20:26N 44°10' E 028°39'0 0.0
2018-Jun-15 19:50N 44°10' E 028°39'0 0.0
2018-Jun-15 19:29N 44°10' E 028°39'0 0.0
2018-Jun-15 18:59N 44°10' E 028°39'0 0.0
2018-Jun-15 18:29N 44°10' E 028°39'0 0.0
2018-Jun-15 17:50N 44°10' E 028°39'0 0.0
2018-Jun-15 17:29N 44°10' E 028°39'0 0.0
2018-Jun-15 16:59N 44°10' E 028°39'0 0.0
2018-Jun-15 16:26N 44°10' E 028°39'0 0.0
2018-Jun-15 15:59N 44°10' E 028°39'0 0.0
2018-Jun-15 15:28N 44°10' E 028°39'0 0.0
2018-Jun-15 14:58N 44°10' E 028°39'0 0.0
2018-Jun-15 14:28N 44°10' E 028°39'0 0.0
2018-Jun-15 13:49N 44°10' E 028°39'0 0.0
2018-Jun-15 13:28N 44°10' E 028°39'0 0.0
2018-Jun-15 12:58N 44°10' E 028°39'0 0.0
2018-Jun-15 12:28N 44°10' E 028°39'0 0.0
2018-Jun-15 11:58N 44°10' E 028°39'0 0.0
2018-Jun-15 11:25N 44°10' E 028°39'0 0.0
2018-Jun-15 10:58N 44°10' E 028°39'0 0.0
2018-Jun-15 10:28N 44°10' E 028°39'0 0.0
2018-Jun-15 09:58N 44°10' E 028°39'0 0.0
2018-Jun-15 09:28N 44°10' E 028°39'0 0.0
2018-Jun-15 08:58N 44°10' E 028°39'0 0.0
2018-Jun-15 08:28N 44°10' E 028°39'0 0.0
2018-Jun-15 07:58N 44°10' E 028°39'0 0.0
2018-Jun-15 07:28N 44°10' E 028°39'0 0.0
2018-Jun-15 06:58N 44°10' E 028°39'0 0.0
2018-Jun-15 06:25N 44°10' E 028°39'0 0.0
2018-Jun-15 05:55N 44°10' E 028°39'0 0.0
2018-Jun-15 05:28N 44°10' E 028°39'0 0.1
2018-Jun-15 04:58N 44°10' E 028°39'0 0.0
2018-Jun-15 04:28N 44°10' E 028°39'0 0.0
2018-Jun-15 03:58N 44°10' E 028°39'0 0.0
2018-Jun-15 03:28N 44°10' E 028°39'0 0.0
2018-Jun-15 02:55N 44°10' E 028°39'0 0.0
2018-Jun-15 02:28N 44°10' E 028°39'0 0.0
2018-Jun-15 01:58N 44°10' E 028°39'0 0.0
2018-Jun-15 01:28N 44°10' E 028°39'0 0.0
2018-Jun-15 00:58N 44°10' E 028°39'0 0.0
2018-Jun-15 00:28N 44°10' E 028°39'0 0.0
2018-Jun-14 23:58N 44°10' E 028°39'0 0.0
2018-Jun-14 23:28N 44°10' E 028°39'0 0.0
2018-Jun-14 22:58N 44°10' E 028°39'0 0.0
2018-Jun-14 22:28N 44°10' E 028°39'0 0.0
2018-Jun-14 21:58N 44°10' E 028°39'0 0.0
2018-Jun-14 21:28N 44°10' E 028°39'0 0.0
2018-Jun-14 20:52N 44°10' E 028°39'0 0.0
2018-Jun-14 20:28N 44°10' E 028°39'0 0.0
2018-Jun-14 19:58N 44°10' E 028°39'0 0.0
2018-Jun-14 19:25N 44°10' E 028°39'0 0.0
2018-Jun-14 18:58N 44°10' E 028°39'0 0.0
2018-Jun-14 18:30N 44°10' E 028°39'0 0.0
2018-Jun-14 18:00N 44°10' E 028°39'0 0.0
2018-Jun-14 16:46N 44°10' E 028°39'0 0.0
2018-Jun-14 16:25N 44°10' E 028°39'0 0.0
2018-Jun-14 14:21N 44°10' E 028°39'0 0.0
2018-Jun-14 13:43N 44°10' E 028°39'0 0.0
2018-Jun-14 13:20N 44°10' E 028°39'0 0.0
2018-Jun-14 12:55N 44°10' E 028°39'0 0.0
2018-Jun-14 12:25N 44°10' E 028°39'0 0.0
2018-Jun-14 11:58N 44°10' E 028°39'0 0.0
2018-Jun-14 11:28N 44°10' E 028°39'0 0.1
2018-Jun-14 10:55N 44°10' E 028°39'0 0.1
2018-Jun-14 10:28N 44°10' E 028°39'0 0.0
2018-Jun-14 09:58N 44°10' E 028°39'0 0.0
2018-Jun-14 09:28N 44°10' E 028°39'0 0.0
2018-Jun-14 08:58N 44°10' E 028°39'0 0.0
2018-Jun-14 08:28N 44°10' E 028°39'0 0.0
2018-Jun-14 07:58N 44°10' E 028°39'0 0.0
2018-Jun-14 07:28N 44°10' E 028°39'0 0.0
2018-Jun-14 06:58N 44°10' E 028°39'0 0.0
2018-Jun-14 06:31N 44°10' E 028°39'0 0.0
2018-Jun-14 05:58N 44°10' E 028°39'0 0.0
2018-Jun-14 05:27N 44°10' E 028°39'0 0.0
2018-Jun-14 05:00N 44°10' E 028°39'0 0.0
2018-Jun-14 04:30N 44°10' E 028°39'0 0.0
2018-Jun-14 03:57N 44°10' E 028°39'0 0.0
2018-Jun-14 03:30N 44°10' E 028°39'0 0.0
2018-Jun-14 03:00N 44°10' E 028°39'0 0.0
2018-Jun-14 02:30N 44°10' E 028°39'0 0.0
2018-Jun-14 02:00N 44°10' E 028°39'0 0.0
2018-Jun-14 01:30N 44°10' E 028°39'0 0.0
2018-Jun-14 01:00N 44°10' E 028°39'0 0.0
2018-Jun-14 00:30N 44°10' E 028°39'0 0.0
2018-Jun-14 00:00N 44°10' E 028°39'0 0.0
2018-Jun-13 23:30N 44°10' E 028°39'0 0.0
2018-Jun-13 22:57N 44°10' E 028°39'0 0.0
2018-Jun-13 22:24N 44°10' E 028°39'0 0.0
2018-Jun-13 22:00N 44°10' E 028°39'0 0.0
2018-Jun-13 21:30N 44°10' E 028°39'0 0.0
2018-Jun-13 20:57N 44°10' E 028°39'0 0.0
2018-Jun-13 20:27N 44°10' E 028°39'0 0.0
2018-Jun-13 19:57N 44°10' E 028°39'0 0.0
2018-Jun-13 19:30N 44°10' E 028°39'0 0.0
2018-Jun-13 19:00N 44°10' E 028°39'0 0.0
2018-Jun-13 18:30N 44°10' E 028°39'0 0.0
2018-Jun-13 18:00N 44°10' E 028°39'0 0.0
2018-Jun-13 17:27N 44°10' E 028°39'0 0.0
2018-Jun-13 16:54N 44°10' E 028°39'0 0.0
2018-Jun-13 16:24N 44°10' E 028°39'0 0.0
2018-Jun-13 16:00N 44°10' E 028°39'0 0.0
2018-Jun-13 15:24N 44°10' E 028°39'0 0.0
2018-Jun-13 15:00N 44°10' E 028°39'1 2.9
2018-Jun-13 14:30N 44°09' E 028°40'4 7.8
2018-Jun-13 14:00N 44°06' E 028°44'3 6.9
2018-Jun-13 13:30N 44°07' E 028°48'4 7.6
2018-Jun-13 13:00N 44°10' E 028°52'4 7.8
2018-Jun-13 12:30N 44°12' E 028°56'4 8.1
2018-Jun-13 12:00N 44°15' E 029°00'4 8.4
2018-Jun-13 11:30N 44°18' E 029°05'4 8.5
2018-Jun-13 11:01N 44°21' E 029°09'4 8.3
2018-Jun-13 10:30N 44°23' E 029°14'4 8.2
2018-Jun-13 10:00N 44°26' E 029°18'4 8.3
2018-Jun-13 09:30N 44°29' E 029°23'4 8.3
2018-Jun-13 09:00N 44°31' E 029°27'1 2.0
2018-Jun-13 08:30N 44°32' E 029°28'0 0.0
2018-Jun-13 07:59N 44°32' E 029°28'0 0.0
2018-Jun-13 04:58N 44°32' E 029°28'0 0.0
2018-Jun-13 02:26N 44°32' E 029°28'1 2.7
2018-Jun-13 02:00N 44°33' E 029°29'0 0.0
2018-Jun-13 01:18N 44°33' E 029°29'0 0.0
2018-Jun-13 01:00N 44°33' E 029°29'0 0.0
2018-Jun-13 00:30N 44°33' E 029°29'  

Dump ship's entire track history